sensor_id;sensor_type;location;lat;lon;timestamp;temperature;humidity
1123;DHT22;548;48.778;9.252;2022-12-20T03:53:46;3.90;99.90
1123;DHT22;548;48.778;9.252;2022-12-20T03:56:13;3.90;99.90
1123;DHT22;548;48.778;9.252;2022-12-20T03:58:39;3.90;99.90
1123;DHT22;548;48.778;9.252;2022-12-20T04:01:16;4.00;99.90
1123;DHT22;548;48.778;9.252;2022-12-20T04:03:43;4.00;99.90
1123;DHT22;548;48.778;9.252;2022-12-20T04:06:10;4.10;99.90
1123;DHT22;548;48.778;9.252;2022-12-20T04:08:37;4.10;99.90
1123;DHT22;548;48.778;9.252;2022-12-20T04:11:05;4.10;99.90
1123;DHT22;548;48.778;9.252;2022-12-20T04:13:45;4.10;99.90
1123;DHT22;548;48.778;9.252;2022-12-20T04:16:14;4.10;99.90
1123;DHT22;548;48.778;9.252;2022-12-20T04:18:41;4.10;99.90
1123;DHT22;548;48.778;9.252;2022-12-20T04:21:08;4.10;99.90
1123;DHT22;548;48.778;9.252;2022-12-20T04:23:36;4.10;99.90
1123;DHT22;548;48.778;9.252;2022-12-20T04:26:07;4.10;99.90
1123;DHT22;548;48.778;9.252;2022-12-20T04:28:34;4.10;99.90
1123;DHT22;548;48.778;9.252;2022-12-20T04:31:01;4.10;99.90
1123;DHT22;548;48.778;9.252;2022-12-20T04:33:28;4.10;99.90
1123;DHT22;548;48.778;9.252;2022-12-20T04:35:55;4.00;99.90
1123;DHT22;548;48.778;9.252;2022-12-20T04:38:22;3.90;99.90
1123;DHT22;548;48.778;9.252;2022-12-20T04:40:50;3.90;99.90
1123;DHT22;548;48.778;9.252;2022-12-20T04:43:18;4.00;99.90
1123;DHT22;548;48.778;9.252;2022-12-20T04:45:46;4.00;99.90
1123;DHT22;548;48.778;9.252;2022-12-20T04:48:14;4.00;99.90
1123;DHT22;548;48.778;9.252;2022-12-20T04:50:41;4.00;99.90
1123;DHT22;548;48.778;9.252;2022-12-20T04:53:10;4.00;99.90
1123;DHT22;548;48.778;9.252;2022-12-20T04:55:54;4.00;99.90
1123;DHT22;548;48.778;9.252;2022-12-20T04:58:22;4.00;99.90
1123;DHT22;548;48.778;9.252;2022-12-20T05:00:49;4.00;99.90
1123;DHT22;548;48.778;9.252;2022-12-20T05:03:17;4.00;99.90
1123;DHT22;548;48.778;9.252;2022-12-20T05:05:44;4.00;99.90
1123;DHT22;548;48.778;9.252;2022-12-20T05:08:11;4.00;99.90
1123;DHT22;548;48.778;9.252;2022-12-20T05:10:37;4.10;99.90
1123;DHT22;548;48.778;9.252;2022-12-20T05:13:04;4.10;99.90
1123;DHT22;548;48.778;9.252;2022-12-20T05:15:33;4.10;99.90
1123;DHT22;548;48.778;9.252;2022-12-20T05:18:00;4.10;99.90
1123;DHT22;548;48.778;9.252;2022-12-20T05:20:27;4.10;99.90
1123;DHT22;548;48.778;9.252;2022-12-20T05:22:54;4.10;99.90
1123;DHT22;548;48.778;9.252;2022-12-20T05:25:39;4.10;99.90
1123;DHT22;548;48.778;9.252;2022-12-20T05:28:26;4.10;99.90
1123;DHT22;548;48.778;9.252;2022-12-20T05:30:54;4.10;99.90
1123;DHT22;548;48.778;9.252;2022-12-20T05:33:21;4.20;99.90
1123;DHT22;548;48.778;9.252;2022-12-20T05:35:48;4.20;99.90
1123;DHT22;548;48.778;9.252;2022-12-20T05:38:14;4.20;99.90
1123;DHT22;548;48.778;9.252;2022-12-20T05:40:41;4.20;99.90
1123;DHT22;548;48.778;9.252;2022-12-20T05:43:09;4.20;99.90
1123;DHT22;548;48.778;9.252;2022-12-20T05:45:35;4.10;99.90
1123;DHT22;548;48.778;9.252;2022-12-20T05:48:04;4.10;99.90
1123;DHT22;548;48.778;9.252;2022-12-20T05:50:31;4.10;99.90
1123;DHT22;548;48.778;9.252;2022-12-20T05:52:58;4.10;99.90
1123;DHT22;548;48.778;9.252;2022-12-20T05:55:24;4.10;99.90
1123;DHT22;548;48.778;9.252;2022-12-20T05:57:51;4.20;99.90
1123;DHT22;548;48.778;9.252;2022-12-20T06:00:18;4.20;99.90
1123;DHT22;548;48.778;9.252;2022-12-20T06:02:45;4.20;99.90
1123;DHT22;548;48.778;9.252;2022-12-20T06:05:13;4.20;99.90
1123;DHT22;548;48.778;9.252;2022-12-20T06:07:40;4.20;99.90
1123;DHT22;548;48.778;9.252;2022-12-20T06:10:09;4.30;99.90
1123;DHT22;548;48.778;9.252;2022-12-20T06:12:36;4.20;99.90
1123;DHT22;548;48.778;9.252;2022-12-20T06:15:04;4.20;99.90
1123;DHT22;548;48.778;9.252;2022-12-20T06:17:30;4.20;99.90
1123;DHT22;548;48.778;9.252;2022-12-20T06:19:57;4.20;99.90
1123;DHT22;548;48.778;9.252;2022-12-20T06:22:25;4.20;99.90
1123;DHT22;548;48.778;9.252;2022-12-20T06:24:53;4.20;99.90
1123;DHT22;548;48.778;9.252;2022-12-20T06:27:19;4.30;99.90
1123;DHT22;548;48.778;9.252;2022-12-20T06:29:47;4.30;99.90
1123;DHT22;548;48.778;9.252;2022-12-20T06:32:16;4.30;99.90
1123;DHT22;548;48.778;9.252;2022-12-20T06:34:43;4.30;99.90
1123;DHT22;548;48.778;9.252;2022-12-20T06:37:10;4.30;99.90
1123;DHT22;548;48.778;9.252;2022-12-20T06:39:38;4.30;99.90
1123;DHT22;548;48.778;9.252;2022-12-20T06:42:05;4.30;99.90
1123;DHT22;548;48.778;9.252;2022-12-20T06:44:32;4.30;99.90
1123;DHT22;548;48.778;9.252;2022-12-20T06:46:59;4.30;99.90
1123;DHT22;548;48.778;9.252;2022-12-20T06:49:25;4.30;99.90
1123;DHT22;548;48.778;9.252;2022-12-20T06:51:52;4.30;99.90
1123;DHT22;548;48.778;9.252;2022-12-20T06:54:19;4.40;99.90
1123;DHT22;548;48.778;9.252;2022-12-20T06:56:47;4.40;99.90
1123;DHT22;548;48.778;9.252;2022-12-20T06:59:14;4.40;99.90
1123;DHT22;548;48.778;9.252;2022-12-20T07:01:41;4.40;99.90
1123;DHT22;548;48.778;9.252;2022-12-20T07:04:09;4.40;99.90
1123;DHT22;548;48.778;9.252;2022-12-20T07:06:35;4.30;99.90
1123;DHT22;548;48.778;9.252;2022-12-20T07:09:02;4.30;99.90
1123;DHT22;548;48.778;9.252;2022-12-20T07:11:29;4.40;99.90
1123;DHT22;548;48.778;9.252;2022-12-20T07:13:57;4.40;99.90
1123;DHT22;548;48.778;9.252;2022-12-20T07:16:24;4.40;99.90
1123;DHT22;548;48.778;9.252;2022-12-20T07:18:51;4.40;99.90
1123;DHT22;548;48.778;9.252;2022-12-20T07:21:19;4.40;99.90
1123;DHT22;548;48.778;9.252;2022-12-20T07:23:46;4.40;99.90
1123;DHT22;548;48.778;9.252;2022-12-20T07:26:14;4.50;99.90
1123;DHT22;548;48.778;9.252;2022-12-20T07:28:41;4.50;99.90
1123;DHT22;548;48.778;9.252;2022-12-20T07:31:10;4.40;99.90
1123;DHT22;548;48.778;9.252;2022-12-20T07:33:37;4.40;99.90
1123;DHT22;548;48.778;9.252;2022-12-20T07:36:05;4.40;99.90
1123;DHT22;548;48.778;9.252;2022-12-20T07:38:33;4.30;99.90
1123;DHT22;548;48.778;9.252;2022-12-20T07:41:00;4.30;99.90
1123;DHT22;548;48.778;9.252;2022-12-20T07:43:27;4.30;99.90
1123;DHT22;548;48.778;9.252;2022-12-20T07:45:54;4.40;99.90
1123;DHT22;548;48.778;9.252;2022-12-20T07:48:22;4.40;99.90
1123;DHT22;548;48.778;9.252;2022-12-20T07:50:51;4.40;99.90
1123;DHT22;548;48.778;9.252;2022-12-20T07:53:19;4.40;99.90
1123;DHT22;548;48.778;9.252;2022-12-20T07:55:47;4.40;99.90
1123;DHT22;548;48.778;9.252;2022-12-20T07:58:15;4.50;99.90
1123;DHT22;548;48.778;9.252;2022-12-20T08:00:43;4.50;99.90
1123;DHT22;548;48.778;9.252;2022-12-20T08:03:12;4.50;99.90
1123;DHT22;548;48.778;9.252;2022-12-20T08:05:45;4.50;99.90
1123;DHT22;548;48.778;9.252;2022-12-20T08:08:14;4.60;99.90
1123;DHT22;548;48.778;9.252;2022-12-20T08:10:41;4.60;99.90
1123;DHT22;548;48.778;9.252;2022-12-20T08:13:09;4.60;99.90
1123;DHT22;548;48.778;9.252;2022-12-20T08:15:36;4.80;99.90
1123;DHT22;548;48.778;9.252;2022-12-20T08:18:02;4.90;99.90
1123;DHT22;548;48.778;9.252;2022-12-20T08:20:30;4.90;99.90
1123;DHT22;548;48.778;9.252;2022-12-20T08:22:58;5.00;99.90
1123;DHT22;548;48.778;9.252;2022-12-20T08:25:25;5.10;99.90
1123;DHT22;548;48.778;9.252;2022-12-20T08:27:52;5.10;99.90
1123;DHT22;548;48.778;9.252;2022-12-20T08:30:18;5.10;99.90
1123;DHT22;548;48.778;9.252;2022-12-20T08:32:45;5.10;99.90
1123;DHT22;548;48.778;9.252;2022-12-20T08:35:12;5.00;99.90
1123;DHT22;548;48.778;9.252;2022-12-20T14:39:23;7.80;99.90
1123;DHT22;548;48.778;9.252;2022-12-20T14:41:55;7.70;99.90
1123;DHT22;548;48.778;9.252;2022-12-20T14:44:24;7.70;99.90
1123;DHT22;548;48.778;9.252;2022-12-20T14:46:52;7.60;99.90
1123;DHT22;548;48.778;9.252;2022-12-20T14:49:22;7.60;99.90
1123;DHT22;548;48.778;9.252;2022-12-20T14:51:50;7.60;99.90
1123;DHT22;548;48.778;9.252;2022-12-20T14:54:19;7.60;99.90
1123;DHT22;548;48.778;9.252;2022-12-20T14:56:48;7.60;99.90
1123;DHT22;548;48.778;9.252;2022-12-20T14:59:21;7.60;99.90
1123;DHT22;548;48.778;9.252;2022-12-20T15:01:50;7.60;99.90
1123;DHT22;548;48.778;9.252;2022-12-20T15:04:23;7.70;99.90
1123;DHT22;548;48.778;9.252;2022-12-20T15:06:50;7.80;99.90
1123;DHT22;548;48.778;9.252;2022-12-20T15:09:17;7.80;99.90
1123;DHT22;548;48.778;9.252;2022-12-20T15:11:46;7.80;99.90
1123;DHT22;548;48.778;9.252;2022-12-20T15:14:30;7.80;99.90
1123;DHT22;548;48.778;9.252;2022-12-20T15:16:58;7.80;99.90
1123;DHT22;548;48.778;9.252;2022-12-20T15:19:25;7.80;99.90
1123;DHT22;548;48.778;9.252;2022-12-20T15:21:52;7.80;99.90
1123;DHT22;548;48.778;9.252;2022-12-20T15:24:22;7.70;99.90
1123;DHT22;548;48.778;9.252;2022-12-20T15:26:51;7.60;99.90
1123;DHT22;548;48.778;9.252;2022-12-20T15:29:19;7.60;99.90
1123;DHT22;548;48.778;9.252;2022-12-20T15:31:47;7.50;99.90
1123;DHT22;548;48.778;9.252;2022-12-20T15:34:18;7.50;99.90
1123;DHT22;548;48.778;9.252;2022-12-20T15:36:45;7.50;99.90
1123;DHT22;548;48.778;9.252;2022-12-20T15:39:12;7.50;99.90
1123;DHT22;548;48.778;9.252;2022-12-20T15:41:40;7.50;99.90
1123;DHT22;548;48.778;9.252;2022-12-20T15:44:13;7.50;99.90
1123;DHT22;548;48.778;9.252;2022-12-20T15:46:40;7.50;99.90
1123;DHT22;548;48.778;9.252;2022-12-20T15:49:12;7.50;99.90
1123;DHT22;548;48.778;9.252;2022-12-20T15:51:39;7.50;99.90
1123;DHT22;548;48.778;9.252;2022-12-20T15:54:16;7.50;99.90
1123;DHT22;548;48.778;9.252;2022-12-20T15:56:46;7.50;99.90
1123;DHT22;548;48.778;9.252;2022-12-20T15:59:14;7.50;99.90
1123;DHT22;548;48.778;9.252;2022-12-20T16:01:41;7.40;99.90
1123;DHT22;548;48.778;9.252;2022-12-20T16:04:13;7.40;99.90
1123;DHT22;548;48.778;9.252;2022-12-20T16:06:40;7.40;99.90
1123;DHT22;548;48.778;9.252;2022-12-20T16:09:08;7.40;99.90
1123;DHT22;548;48.778;9.252;2022-12-20T16:11:35;7.30;99.90
1123;DHT22;548;48.778;9.252;2022-12-20T16:14:01;7.30;99.90
1123;DHT22;548;48.778;9.252;2022-12-20T16:16:31;7.30;99.90
1123;DHT22;548;48.778;9.252;2022-12-20T16:18:59;7.20;99.90
1123;DHT22;548;48.778;9.252;2022-12-20T16:21:29;7.20;99.90
1123;DHT22;548;48.778;9.252;2022-12-20T16:23:57;7.10;99.90
1123;DHT22;548;48.778;9.252;2022-12-20T16:26:24;7.10;99.90
1123;DHT22;548;48.778;9.252;2022-12-20T16:28:52;7.10;99.90
1123;DHT22;548;48.778;9.252;2022-12-20T16:31:22;7.10;99.90
1123;DHT22;548;48.778;9.252;2022-12-20T16:33:52;7.20;99.90
1123;DHT22;548;48.778;9.252;2022-12-20T16:36:19;7.20;99.90
1123;DHT22;548;48.778;9.252;2022-12-20T16:38:45;7.20;99.90
1123;DHT22;548;48.778;9.252;2022-12-20T16:41:14;7.20;99.90
1123;DHT22;548;48.778;9.252;2022-12-20T16:43:42;7.30;99.90
1123;DHT22;548;48.778;9.252;2022-12-20T16:46:10;7.40;99.90
1123;DHT22;548;48.778;9.252;2022-12-20T16:48:38;7.50;99.90
1123;DHT22;548;48.778;9.252;2022-12-20T16:51:21;7.60;99.90
1123;DHT22;548;48.778;9.252;2022-12-20T16:53:48;7.50;99.90
1123;DHT22;548;48.778;9.252;2022-12-20T16:56:16;7.40;99.90
1123;DHT22;548;48.778;9.252;2022-12-20T16:58:43;7.40;99.90
1123;DHT22;548;48.778;9.252;2022-12-20T17:01:13;7.40;99.90
1123;DHT22;548;48.778;9.252;2022-12-20T17:03:42;7.40;99.90
1123;DHT22;548;48.778;9.252;2022-12-20T17:06:09;7.40;99.90
1123;DHT22;548;48.778;9.252;2022-12-20T17:08:38;7.40;99.90
1123;DHT22;548;48.778;9.252;2022-12-20T17:11:12;7.40;99.90
1123;DHT22;548;48.778;9.252;2022-12-20T17:13:39;7.50;99.90
1123;DHT22;548;48.778;9.252;2022-12-20T17:16:08;7.50;99.90
1123;DHT22;548;48.778;9.252;2022-12-20T17:18:35;7.50;99.90
1123;DHT22;548;48.778;9.252;2022-12-20T17:21:10;7.50;99.90
1123;DHT22;548;48.778;9.252;2022-12-20T17:23:39;7.50;99.90
1123;DHT22;548;48.778;9.252;2022-12-20T17:26:07;7.40;99.90
1123;DHT22;548;48.778;9.252;2022-12-20T17:28:34;7.40;99.90
1123;DHT22;548;48.778;9.252;2022-12-20T17:31:01;7.40;99.90
1123;DHT22;548;48.778;9.252;2022-12-20T17:33:28;7.40;99.90
1123;DHT22;548;48.778;9.252;2022-12-20T17:35:55;7.40;99.90
1123;DHT22;548;48.778;9.252;2022-12-20T17:38:21;7.40;99.90
1123;DHT22;548;48.778;9.252;2022-12-20T17:40:49;7.30;99.90
1123;DHT22;548;48.778;9.252;2022-12-20T17:43:16;7.20;99.90
1123;DHT22;548;48.778;9.252;2022-12-20T17:45:43;7.30;99.90
1123;DHT22;548;48.778;9.252;2022-12-20T17:48:09;7.30;99.90
1123;DHT22;548;48.778;9.252;2022-12-20T17:50:36;7.30;99.90
1123;DHT22;548;48.778;9.252;2022-12-20T17:53:03;7.20;99.90
1123;DHT22;548;48.778;9.252;2022-12-20T17:55:30;7.20;99.90
1123;DHT22;548;48.778;9.252;2022-12-20T17:57:58;7.20;99.90
1123;DHT22;548;48.778;9.252;2022-12-20T18:00:27;7.20;99.90
1123;DHT22;548;48.778;9.252;2022-12-20T18:02:54;7.20;99.90
1123;DHT22;548;48.778;9.252;2022-12-20T18:05:22;7.20;99.90
1123;DHT22;548;48.778;9.252;2022-12-20T18:07:50;7.30;99.90
1123;DHT22;548;48.778;9.252;2022-12-20T18:10:17;7.30;99.90
1123;DHT22;548;48.778;9.252;2022-12-20T18:12:44;7.30;99.90
1123;DHT22;548;48.778;9.252;2022-12-20T18:15:12;7.30;99.90
1123;DHT22;548;48.778;9.252;2022-12-20T18:17:39;7.30;99.90
1123;DHT22;548;48.778;9.252;2022-12-20T18:20:07;7.30;99.90
1123;DHT22;548;48.778;9.252;2022-12-20T18:22:35;7.40;99.90
1123;DHT22;548;48.778;9.252;2022-12-20T18:25:02;7.40;99.90
1123;DHT22;548;48.778;9.252;2022-12-20T18:27:35;7.40;99.90
1123;DHT22;548;48.778;9.252;2022-12-20T18:30:03;7.40;99.90
1123;DHT22;548;48.778;9.252;2022-12-20T18:32:32;7.40;99.90
1123;DHT22;548;48.778;9.252;2022-12-20T18:34:58;7.40;99.90
1123;DHT22;548;48.778;9.252;2022-12-20T18:37:25;7.30;99.90
1123;DHT22;548;48.778;9.252;2022-12-20T18:39:52;7.30;99.90
1123;DHT22;548;48.778;9.252;2022-12-20T18:42:19;7.30;99.90
1123;DHT22;548;48.778;9.252;2022-12-20T18:44:45;7.30;99.90
1123;DHT22;548;48.778;9.252;2022-12-20T18:47:12;7.30;99.90
1123;DHT22;548;48.778;9.252;2022-12-20T18:49:40;7.40;99.90
1123;DHT22;548;48.778;9.252;2022-12-20T18:52:07;7.50;99.90
1123;DHT22;548;48.778;9.252;2022-12-20T18:54:33;7.60;99.90
1123;DHT22;548;48.778;9.252;2022-12-20T18:57:00;7.60;99.90
1123;DHT22;548;48.778;9.252;2022-12-20T18:59:30;7.60;99.90
1123;DHT22;548;48.778;9.252;2022-12-20T19:01:57;7.60;99.90
1123;DHT22;548;48.778;9.252;2022-12-20T19:04:24;7.60;99.90
1123;DHT22;548;48.778;9.252;2022-12-20T19:06:52;7.50;99.90
1123;DHT22;548;48.778;9.252;2022-12-20T19:09:19;7.50;99.90
1123;DHT22;548;48.778;9.252;2022-12-20T19:11:46;7.60;99.90
1123;DHT22;548;48.778;9.252;2022-12-20T19:14:12;7.60;99.90
1123;DHT22;548;48.778;9.252;2022-12-20T19:16:40;7.70;99.90
1123;DHT22;548;48.778;9.252;2022-12-20T19:19:07;7.80;99.90
1123;DHT22;548;48.778;9.252;2022-12-20T19:21:36;7.80;99.90
1123;DHT22;548;48.778;9.252;2022-12-20T19:24:05;7.90;99.90
1123;DHT22;548;48.778;9.252;2022-12-20T19:26:33;7.90;99.90
1123;DHT22;548;48.778;9.252;2022-12-20T19:29:01;7.90;99.90
1123;DHT22;548;48.778;9.252;2022-12-20T19:31:30;7.80;99.90
1123;DHT22;548;48.778;9.252;2022-12-20T19:33:59;7.80;99.90
1123;DHT22;548;48.778;9.252;2022-12-20T19:36:28;7.70;99.90
1123;DHT22;548;48.778;9.252;2022-12-20T19:38:56;7.60;99.90
1123;DHT22;548;48.778;9.252;2022-12-20T19:41:26;7.50;99.90
1123;DHT22;548;48.778;9.252;2022-12-20T19:43:53;7.50;99.90
1123;DHT22;548;48.778;9.252;2022-12-20T19:46:20;7.40;99.90
1123;DHT22;548;48.778;9.252;2022-12-20T19:48:48;7.40;99.90
1123;DHT22;548;48.778;9.252;2022-12-20T19:51:15;7.40;99.90
1123;DHT22;548;48.778;9.252;2022-12-20T19:53:44;7.40;99.90
1123;DHT22;548;48.778;9.252;2022-12-20T19:56:13;7.40;99.90
1123;DHT22;548;48.778;9.252;2022-12-20T19:58:42;7.40;99.90
1123;DHT22;548;48.778;9.252;2022-12-20T20:01:10;7.40;99.90
1123;DHT22;548;48.778;9.252;2022-12-20T20:06:19;7.40;99.90
1123;DHT22;548;48.778;9.252;2022-12-20T20:08:46;7.40;99.90
1123;DHT22;548;48.778;9.252;2022-12-20T20:11:14;7.40;99.90
1123;DHT22;548;48.778;9.252;2022-12-20T20:13:43;7.40;99.90
1123;DHT22;548;48.778;9.252;2022-12-20T20:16:10;7.60;99.90
1123;DHT22;548;48.778;9.252;2022-12-20T20:18:37;7.30;99.90
1123;DHT22;548;48.778;9.252;2022-12-20T20:21:06;7.40;99.90
1123;DHT22;548;48.778;9.252;2022-12-20T20:23:33;7.30;99.90
1123;DHT22;548;48.778;9.252;2022-12-20T20:26:03;7.30;99.90
1123;DHT22;548;48.778;9.252;2022-12-20T20:28:30;7.40;99.90
1123;DHT22;548;48.778;9.252;2022-12-20T20:30:59;7.40;99.90
1123;DHT22;548;48.778;9.252;2022-12-20T20:33:25;7.30;99.90
1123;DHT22;548;48.778;9.252;2022-12-20T20:35:53;7.30;99.90
1123;DHT22;548;48.778;9.252;2022-12-20T20:38:20;7.20;99.90
1123;DHT22;548;48.778;9.252;2022-12-20T20:40:47;7.20;99.90
1123;DHT22;548;48.778;9.252;2022-12-20T20:43:13;7.20;99.90
1123;DHT22;548;48.778;9.252;2022-12-20T20:45:40;7.10;99.90
1123;DHT22;548;48.778;9.252;2022-12-20T20:48:08;7.10;99.90
1123;DHT22;548;48.778;9.252;2022-12-20T20:50:35;7.10;99.90
1123;DHT22;548;48.778;9.252;2022-12-20T20:53:02;7.20;99.90
1123;DHT22;548;48.778;9.252;2022-12-20T20:55:30;7.20;99.90
1123;DHT22;548;48.778;9.252;2022-12-20T20:57:57;7.20;99.90
1123;DHT22;548;48.778;9.252;2022-12-20T21:00:23;7.20;99.90
1123;DHT22;548;48.778;9.252;2022-12-20T21:02:50;7.30;99.90
1123;DHT22;548;48.778;9.252;2022-12-20T21:05:18;7.30;99.90
1123;DHT22;548;48.778;9.252;2022-12-20T21:07:45;7.30;99.90
1123;DHT22;548;48.778;9.252;2022-12-20T21:10:12;7.40;99.90
1123;DHT22;548;48.778;9.252;2022-12-20T21:12:38;7.40;99.90
1123;DHT22;548;48.778;9.252;2022-12-20T21:15:06;7.30;99.90
1123;DHT22;548;48.778;9.252;2022-12-20T21:17:33;7.30;99.90
1123;DHT22;548;48.778;9.252;2022-12-20T21:20:00;7.30;99.90
1123;DHT22;548;48.778;9.252;2022-12-20T21:22:28;7.10;99.90
1123;DHT22;548;48.778;9.252;2022-12-20T21:24:54;6.90;99.90
1123;DHT22;548;48.778;9.252;2022-12-20T21:27:23;6.80;99.90
1123;DHT22;548;48.778;9.252;2022-12-20T21:29:50;6.80;99.90
1123;DHT22;548;48.778;9.252;2022-12-20T21:34:44;6.70;99.90
1123;DHT22;548;48.778;9.252;2022-12-20T21:37:10;6.60;99.90
1123;DHT22;548;48.778;9.252;2022-12-20T21:39:38;6.50;99.90
1123;DHT22;548;48.778;9.252;2022-12-20T21:42:05;6.50;99.90
1123;DHT22;548;48.778;9.252;2022-12-20T21:44:32;6.50;99.90
1123;DHT22;548;48.778;9.252;2022-12-20T21:46:58;6.50;99.90
1123;DHT22;548;48.778;9.252;2022-12-20T21:49:25;6.50;99.90
1123;DHT22;548;48.778;9.252;2022-12-20T21:51:52;6.50;99.90
1123;DHT22;548;48.778;9.252;2022-12-20T21:54:20;6.50;99.90
1123;DHT22;548;48.778;9.252;2022-12-20T21:56:48;6.50;99.90
1123;DHT22;548;48.778;9.252;2022-12-20T21:59:15;6.50;99.90
1123;DHT22;548;48.778;9.252;2022-12-20T22:01:42;6.50;99.90
1123;DHT22;548;48.778;9.252;2022-12-20T22:04:12;6.40;99.90
1123;DHT22;548;48.778;9.252;2022-12-20T22:06:40;6.40;99.90
1123;DHT22;548;48.778;9.252;2022-12-20T22:09:07;6.50;99.90
1123;DHT22;548;48.778;9.252;2022-12-20T22:11:36;6.50;99.90
1123;DHT22;548;48.778;9.252;2022-12-20T22:14:05;6.50;99.90
1123;DHT22;548;48.778;9.252;2022-12-20T22:16:32;6.40;99.90
1123;DHT22;548;48.778;9.252;2022-12-20T22:19:00;6.50;99.90
1123;DHT22;548;48.778;9.252;2022-12-20T22:21:28;6.50;99.90
1123;DHT22;548;48.778;9.252;2022-12-20T22:23:56;6.50;99.90
1123;DHT22;548;48.778;9.252;2022-12-20T22:26:25;6.60;99.90
1123;DHT22;548;48.778;9.252;2022-12-20T22:28:55;6.60;99.90
1123;DHT22;548;48.778;9.252;2022-12-20T22:31:24;6.60;99.90
1123;DHT22;548;48.778;9.252;2022-12-20T22:33:52;6.50;99.90
1123;DHT22;548;48.778;9.252;2022-12-20T22:36:19;6.50;99.90
1123;DHT22;548;48.778;9.252;2022-12-20T22:38:49;6.50;99.90
1123;DHT22;548;48.778;9.252;2022-12-20T22:41:17;6.50;99.90
1123;DHT22;548;48.778;9.252;2022-12-20T22:43:45;6.50;99.90
1123;DHT22;548;48.778;9.252;2022-12-20T22:46:14;6.60;99.90
1123;DHT22;548;48.778;9.252;2022-12-20T22:48:43;6.60;99.90
1123;DHT22;548;48.778;9.252;2022-12-20T22:51:11;6.60;99.90
1123;DHT22;548;48.778;9.252;2022-12-20T22:53:40;6.60;99.90
1123;DHT22;548;48.778;9.252;2022-12-20T22:56:07;6.60;99.90
1123;DHT22;548;48.778;9.252;2022-12-20T22:58:35;6.50;99.90
1123;DHT22;548;48.778;9.252;2022-12-20T23:01:03;6.40;99.90
1123;DHT22;548;48.778;9.252;2022-12-20T23:03:31;6.40;99.90
1123;DHT22;548;48.778;9.252;2022-12-20T23:06:00;6.40;99.90
1123;DHT22;548;48.778;9.252;2022-12-20T23:08:29;6.40;99.90
1123;DHT22;548;48.778;9.252;2022-12-20T23:10:56;6.40;99.90
1123;DHT22;548;48.778;9.252;2022-12-20T23:13:41;6.80;99.90
1123;DHT22;548;48.778;9.252;2022-12-20T23:16:25;6.50;99.90
1123;DHT22;548;48.778;9.252;2022-12-20T23:18:52;6.50;99.90
1123;DHT22;548;48.778;9.252;2022-12-20T23:21:21;6.60;99.90
1123;DHT22;548;48.778;9.252;2022-12-20T23:24:06;6.70;99.90
1123;DHT22;548;48.778;9.252;2022-12-20T23:26:34;6.70;99.90
1123;DHT22;548;48.778;9.252;2022-12-20T23:29:00;6.70;99.90
1123;DHT22;548;48.778;9.252;2022-12-20T23:31:28;6.80;99.90
1123;DHT22;548;48.778;9.252;2022-12-20T23:33:55;6.70;99.90
1123;DHT22;548;48.778;9.252;2022-12-20T23:36:24;6.70;99.90
1123;DHT22;548;48.778;9.252;2022-12-20T23:38:50;6.60;99.90
1123;DHT22;548;48.778;9.252;2022-12-20T23:41:17;6.70;99.90
1123;DHT22;548;48.778;9.252;2022-12-20T23:43:44;6.70;99.90
1123;DHT22;548;48.778;9.252;2022-12-20T23:46:12;6.70;99.90
1123;DHT22;548;48.778;9.252;2022-12-20T23:48:39;6.70;99.90
1123;DHT22;548;48.778;9.252;2022-12-20T23:51:06;6.60;99.90
1123;DHT22;548;48.778;9.252;2022-12-20T23:53:35;6.60;99.90
1123;DHT22;548;48.778;9.252;2022-12-20T23:56:04;6.50;99.90
1123;DHT22;548;48.778;9.252;2022-12-20T23:58:33;6.50;99.90
